Terminal Aerodrome Forecast
Issued by NWS Wilmington, OH

Current Version | Previous Version | Graphics & Text | Print | Product List | Glossary On
Versions: 1 2 3 4 5 6 7 8 9 10 11 12 13 14 15 16 17 18 19 20 21 22 23 24 25 26 27 28 29 30
000
FTUS41 KILN 300200 AAA
TAFCVG
TAF AMD
KCVG 300236Z 3003/3106 30013G19KT 6SM BR VCSH SCT008 BKN013 OVC030
     FM300900 33013G22KT P6SM OVC022
     FM301400 33012G18KT P6SM BKN025
     FM301800 34011KT P6SM SCT025
     FM310000 VRB03KT P6SM FEW025=

USA.gov is the U.S. government's official web portal to all federal, state and local government web resources and services.